sensor_id;sensor_type;location;lat;lon;timestamp;temperature;humidity
65239;SHT30;51827;51.186;6.926;2023-02-10T00:00:41;18.17;42.18
65239;SHT30;51827;51.186;6.926;2023-02-10T00:01:41;18.20;42.16
65239;SHT30;51827;51.186;6.926;2023-02-10T00:02:42;18.20;42.17
65239;SHT30;51827;51.186;6.926;2023-02-10T00:03:42;18.17;42.14
65239;SHT30;51827;51.186;6.926;2023-02-10T00:04:43;18.20;42.14
65239;SHT30;51827;51.186;6.926;2023-02-10T00:05:43;18.20;42.20
65239;SHT30;51827;51.186;6.926;2023-02-10T00:06:43;18.20;42.18
65239;SHT30;51827;51.186;6.926;2023-02-10T00:07:43;18.20;42.20
65239;SHT30;51827;51.186;6.926;2023-02-10T00:08:48;18.18;42.17
65239;SHT30;51827;51.186;6.926;2023-02-10T00:09:49;18.18;42.20
65239;SHT30;51827;51.186;6.926;2023-02-10T00:10:49;18.21;42.18
65239;SHT30;51827;51.186;6.926;2023-02-10T00:11:50;18.17;42.14
65239;SHT30;51827;51.186;6.926;2023-02-10T00:12:50;18.18;42.16
65239;SHT30;51827;51.186;6.926;2023-02-10T00:13:50;18.20;42.17
65239;SHT30;51827;51.186;6.926;2023-02-10T00:14:50;18.20;42.17
65239;SHT30;51827;51.186;6.926;2023-02-10T00:15:51;18.18;42.22
65239;SHT30;51827;51.186;6.926;2023-02-10T00:16:53;18.20;42.18
65239;SHT30;51827;51.186;6.926;2023-02-10T00:17:53;18.18;42.19
65239;SHT30;51827;51.186;6.926;2023-02-10T00:18:53;18.18;42.21
65239;SHT30;51827;51.186;6.926;2023-02-10T00:19:54;18.18;42.19
65239;SHT30;51827;51.186;6.926;2023-02-10T00:20:54;18.17;42.20
65239;SHT30;51827;51.186;6.926;2023-02-10T00:21:54;18.18;42.18
65239;SHT30;51827;51.186;6.926;2023-02-10T00:22:55;18.20;42.20
65239;SHT30;51827;51.186;6.926;2023-02-10T00:23:55;18.15;42.25
65239;SHT30;51827;51.186;6.926;2023-02-10T00:24:55;18.17;42.28
65239;SHT30;51827;51.186;6.926;2023-02-10T00:25:55;18.18;42.24
65239;SHT30;51827;51.186;6.926;2023-02-10T00:26:56;18.20;42.22
65239;SHT30;51827;51.186;6.926;2023-02-10T00:27:56;18.17;42.27
65239;SHT30;51827;51.186;6.926;2023-02-10T00:28:56;18.20;42.24
65239;SHT30;51827;51.186;6.926;2023-02-10T00:29:56;18.18;42.22
65239;SHT30;51827;51.186;6.926;2023-02-10T00:30:57;18.20;42.21
65239;SHT30;51827;51.186;6.926;2023-02-10T00:31:57;18.17;42.28
65239;SHT30;51827;51.186;6.926;2023-02-10T00:32:57;18.20;42.25
65239;SHT30;51827;51.186;6.926;2023-02-10T00:33:58;18.20;42.26
65239;SHT30;51827;51.186;6.926;2023-02-10T00:34:58;18.18;42.29
65239;SHT30;51827;51.186;6.926;2023-02-10T00:35:58;18.15;42.25
65239;SHT30;51827;51.186;6.926;2023-02-10T00:36:59;18.17;42.24
65239;SHT30;51827;51.186;6.926;2023-02-10T00:37:59;18.18;42.24
65239;SHT30;51827;51.186;6.926;2023-02-10T00:38:59;18.20;42.26
65239;SHT30;51827;51.186;6.926;2023-02-10T00:39:59;18.18;42.24
65239;SHT30;51827;51.186;6.926;2023-02-10T00:42:07;18.18;42.26
65239;SHT30;51827;51.186;6.926;2023-02-10T00:43:08;18.17;42.26
65239;SHT30;51827;51.186;6.926;2023-02-10T00:44:08;18.17;42.25
65239;SHT30;51827;51.186;6.926;2023-02-10T00:45:09;18.15;42.28
65239;SHT30;51827;51.186;6.926;2023-02-10T00:46:13;18.17;42.30
65239;SHT30;51827;51.186;6.926;2023-02-10T00:47:14;18.20;42.29
65239;SHT30;51827;51.186;6.926;2023-02-10T00:48:14;18.15;42.32
65239;SHT30;51827;51.186;6.926;2023-02-10T00:49:14;18.17;42.32
65239;SHT30;51827;51.186;6.926;2023-02-10T00:50:15;18.18;42.31
65239;SHT30;51827;51.186;6.926;2023-02-10T00:51:16;18.18;42.30
65239;SHT30;51827;51.186;6.926;2023-02-10T00:52:17;18.21;42.31
65239;SHT30;51827;51.186;6.926;2023-02-10T00:53:17;18.18;42.27
65239;SHT30;51827;51.186;6.926;2023-02-10T00:54:17;18.15;42.30
65239;SHT30;51827;51.186;6.926;2023-02-10T00:55:18;18.15;42.35
65239;SHT30;51827;51.186;6.926;2023-02-10T00:56:19;18.15;42.35
65239;SHT30;51827;51.186;6.926;2023-02-10T00:57:19;18.17;42.27
65239;SHT30;51827;51.186;6.926;2023-02-10T00:58:20;18.17;42.32
65239;SHT30;51827;51.186;6.926;2023-02-10T00:59:20;18.20;42.30
65239;SHT30;51827;51.186;6.926;2023-02-10T01:00:20;18.17;42.33
65239;SHT30;51827;51.186;6.926;2023-02-10T01:01:21;18.20;42.30
65239;SHT30;51827;51.186;6.926;2023-02-10T01:02:21;18.17;42.28
65239;SHT30;51827;51.186;6.926;2023-02-10T01:03:21;18.18;42.28
65239;SHT30;51827;51.186;6.926;2023-02-10T01:04:22;18.20;42.29
65239;SHT30;51827;51.186;6.926;2023-02-10T01:05:22;18.17;42.31
65239;SHT30;51827;51.186;6.926;2023-02-10T01:06:22;18.18;42.31
65239;SHT30;51827;51.186;6.926;2023-02-10T01:07:23;18.20;42.28
65239;SHT30;51827;51.186;6.926;2023-02-10T01:08:23;18.18;42.26
65239;SHT30;51827;51.186;6.926;2023-02-10T01:09:24;18.17;42.30
65239;SHT30;51827;51.186;6.926;2023-02-10T01:10:24;18.15;42.34
65239;SHT30;51827;51.186;6.926;2023-02-10T01:11:24;18.20;42.32
65239;SHT30;51827;51.186;6.926;2023-02-10T01:12:25;18.17;42.31
65239;SHT30;51827;51.186;6.926;2023-02-10T01:13:25;18.17;42.38
65239;SHT30;51827;51.186;6.926;2023-02-10T01:14:25;18.17;42.39
65239;SHT30;51827;51.186;6.926;2023-02-10T01:15:26;18.18;42.35
65239;SHT30;51827;51.186;6.926;2023-02-10T01:16:26;18.17;42.31
65239;SHT30;51827;51.186;6.926;2023-02-10T01:17:27;18.15;42.34
65239;SHT30;51827;51.186;6.926;2023-02-10T01:18:27;18.17;42.36
65239;SHT30;51827;51.186;6.926;2023-02-10T01:19:27;18.18;42.35
65239;SHT30;51827;51.186;6.926;2023-02-10T01:20:27;18.17;42.34
65239;SHT30;51827;51.186;6.926;2023-02-10T01:21:28;18.17;42.34
65239;SHT30;51827;51.186;6.926;2023-02-10T01:22:28;18.18;42.41
65239;SHT30;51827;51.186;6.926;2023-02-10T01:23:28;18.18;42.39
65239;SHT30;51827;51.186;6.926;2023-02-10T01:24:29;18.18;42.35
65239;SHT30;51827;51.186;6.926;2023-02-10T01:25:29;18.20;42.40
65239;SHT30;51827;51.186;6.926;2023-02-10T01:26:29;18.15;42.43
65239;SHT30;51827;51.186;6.926;2023-02-10T01:27:29;18.17;42.31
65239;SHT30;51827;51.186;6.926;2023-02-10T01:28:30;18.18;42.39
65239;SHT30;51827;51.186;6.926;2023-02-10T01:29:30;18.17;42.39
65239;SHT30;51827;51.186;6.926;2023-02-10T01:30:31;18.20;42.35
65239;SHT30;51827;51.186;6.926;2023-02-10T01:31:31;18.18;42.38
65239;SHT30;51827;51.186;6.926;2023-02-10T01:32:31;18.17;42.43
65239;SHT30;51827;51.186;6.926;2023-02-10T01:33:32;18.18;42.36
65239;SHT30;51827;51.186;6.926;2023-02-10T01:34:32;18.18;42.43
65239;SHT30;51827;51.186;6.926;2023-02-10T01:35:32;18.18;42.35
65239;SHT30;51827;51.186;6.926;2023-02-10T01:36:32;18.17;42.38
65239;SHT30;51827;51.186;6.926;2023-02-10T01:37:33;18.15;42.40
65239;SHT30;51827;51.186;6.926;2023-02-10T01:38:34;18.17;42.40
65239;SHT30;51827;51.186;6.926;2023-02-10T01:39:34;18.15;42.44
65239;SHT30;51827;51.186;6.926;2023-02-10T01:40:35;18.15;42.44
65239;SHT30;51827;51.186;6.926;2023-02-10T01:41:35;18.17;42.45
65239;SHT30;51827;51.186;6.926;2023-02-10T01:42:35;18.15;42.43
65239;SHT30;51827;51.186;6.926;2023-02-10T01:44:02;18.18;42.44
65239;SHT30;51827;51.186;6.926;2023-02-10T01:45:29;18.15;42.44
65239;SHT30;51827;51.186;6.926;2023-02-10T01:46:33;18.14;42.47
65239;SHT30;51827;51.186;6.926;2023-02-10T01:47:34;18.15;42.44
65239;SHT30;51827;51.186;6.926;2023-02-10T01:48:34;18.20;42.41
65239;SHT30;51827;51.186;6.926;2023-02-10T01:49:38;18.17;42.46
65239;SHT30;51827;51.186;6.926;2023-02-10T01:51:02;18.18;42.42
65239;SHT30;51827;51.186;6.926;2023-02-10T01:52:07;18.17;42.45
65239;SHT30;51827;51.186;6.926;2023-02-10T01:53:09;18.17;42.46
65239;SHT30;51827;51.186;6.926;2023-02-10T01:54:13;18.15;42.48
65239;SHT30;51827;51.186;6.926;2023-02-10T01:55:17;18.15;42.51
65239;SHT30;51827;51.186;6.926;2023-02-10T01:56:18;18.18;42.48
65239;SHT30;51827;51.186;6.926;2023-02-10T01:57:18;18.17;42.48
65239;SHT30;51827;51.186;6.926;2023-02-10T01:58:22;18.15;42.44
65239;SHT30;51827;51.186;6.926;2023-02-10T01:59:26;18.17;42.45
65239;SHT30;51827;51.186;6.926;2023-02-10T02:00:27;18.17;42.45
65239;SHT30;51827;51.186;6.926;2023-02-10T02:01:28;18.18;42.50
65239;SHT30;51827;51.186;6.926;2023-02-10T02:02:30;18.18;42.50
65239;SHT30;51827;51.186;6.926;2023-02-10T02:03:30;18.18;42.52
65239;SHT30;51827;51.186;6.926;2023-02-10T02:04:31;18.15;42.52
65239;SHT30;51827;51.186;6.926;2023-02-10T02:05:37;18.14;42.48
65239;SHT30;51827;51.186;6.926;2023-02-10T02:06:38;18.17;42.49
65239;SHT30;51827;51.186;6.926;2023-02-10T02:07:38;18.18;42.45
65239;SHT30;51827;51.186;6.926;2023-02-10T02:08:39;18.15;42.51
65239;SHT30;51827;51.186;6.926;2023-02-10T02:09:40;18.17;42.48
65239;SHT30;51827;51.186;6.926;2023-02-10T02:10:43;18.14;42.54
65239;SHT30;51827;51.186;6.926;2023-02-10T02:13:12;18.20;42.53
65239;SHT30;51827;51.186;6.926;2023-02-10T02:14:23;18.18;42.50
65239;SHT30;51827;51.186;6.926;2023-02-10T02:17:32;18.17;42.52
65239;SHT30;51827;51.186;6.926;2023-02-10T02:22:35;18.17;42.53
65239;SHT30;51827;51.186;6.926;2023-02-10T02:27:57;18.17;42.60
65239;SHT30;51827;51.186;6.926;2023-02-10T02:32:18;18.15;42.54
65239;SHT30;51827;51.186;6.926;2023-02-10T02:33:22;18.14;42.59
65239;SHT30;51827;51.186;6.926;2023-02-10T02:34:28;18.17;42.59
65239;SHT30;51827;51.186;6.926;2023-02-10T02:35:33;18.17;42.58
65239;SHT30;51827;51.186;6.926;2023-02-10T02:36:38;18.17;42.57
65239;SHT30;51827;51.186;6.926;2023-02-10T02:37:42;18.14;42.60
65239;SHT30;51827;51.186;6.926;2023-02-10T02:38:43;18.14;42.56
65239;SHT30;51827;51.186;6.926;2023-02-10T02:39:44;18.14;42.64
65239;SHT30;51827;51.186;6.926;2023-02-10T02:40:44;18.14;42.57
65239;SHT30;51827;51.186;6.926;2023-02-10T02:41:44;18.15;42.59
65239;SHT30;51827;51.186;6.926;2023-02-10T02:42:45;18.15;42.60
65239;SHT30;51827;51.186;6.926;2023-02-10T02:43:45;18.17;42.59
65239;SHT30;51827;51.186;6.926;2023-02-10T02:44:54;18.17;42.61
65239;SHT30;51827;51.186;6.926;2023-02-10T02:46:16;18.17;42.61
65239;SHT30;51827;51.186;6.926;2023-02-10T02:51:03;18.18;42.65
65239;SHT30;51827;51.186;6.926;2023-02-10T02:52:12;18.12;42.65
65239;SHT30;51827;51.186;6.926;2023-02-10T02:53:19;18.17;42.61
65239;SHT30;51827;51.186;6.926;2023-02-10T02:54:31;18.15;42.60
65239;SHT30;51827;51.186;6.926;2023-02-10T02:57:58;18.17;42.63
65239;SHT30;51827;51.186;6.926;2023-02-10T03:00:19;18.14;42.63
65239;SHT30;51827;51.186;6.926;2023-02-10T03:01:30;18.17;42.66
65239;SHT30;51827;51.186;6.926;2023-02-10T03:02:32;18.17;42.66
65239;SHT30;51827;51.186;6.926;2023-02-10T03:03:34;18.17;42.62
65239;SHT30;51827;51.186;6.926;2023-02-10T03:04:34;18.14;42.64
65239;SHT30;51827;51.186;6.926;2023-02-10T03:05:36;18.15;42.66
65239;SHT30;51827;51.186;6.926;2023-02-10T03:06:36;18.15;42.65
65239;SHT30;51827;51.186;6.926;2023-02-10T03:07:36;18.15;42.63
65239;SHT30;51827;51.186;6.926;2023-02-10T03:08:39;18.15;42.63
65239;SHT30;51827;51.186;6.926;2023-02-10T03:09:41;18.14;42.67
65239;SHT30;51827;51.186;6.926;2023-02-10T03:10:42;18.14;42.69
65239;SHT30;51827;51.186;6.926;2023-02-10T03:11:42;18.15;42.68
65239;SHT30;51827;51.186;6.926;2023-02-10T03:12:42;18.15;42.66
65239;SHT30;51827;51.186;6.926;2023-02-10T03:13:43;18.17;42.66
65239;SHT30;51827;51.186;6.926;2023-02-10T03:14:43;18.17;42.67
65239;SHT30;51827;51.186;6.926;2023-02-10T03:15:43;18.15;42.63
65239;SHT30;51827;51.186;6.926;2023-02-10T03:16:44;18.17;42.63
65239;SHT30;51827;51.186;6.926;2023-02-10T03:17:44;18.17;42.63
65239;SHT30;51827;51.186;6.926;2023-02-10T03:18:44;18.17;42.59
65239;SHT30;51827;51.186;6.926;2023-02-10T03:19:44;18.17;42.68
65239;SHT30;51827;51.186;6.926;2023-02-10T03:20:45;18.15;42.67
65239;SHT30;51827;51.186;6.926;2023-02-10T03:21:45;18.17;42.68
65239;SHT30;51827;51.186;6.926;2023-02-10T03:22:45;18.14;42.63
65239;SHT30;51827;51.186;6.926;2023-02-10T03:23:45;18.15;42.67
65239;SHT30;51827;51.186;6.926;2023-02-10T03:24:46;18.17;42.65
65239;SHT30;51827;51.186;6.926;2023-02-10T03:25:46;18.15;42.67
65239;SHT30;51827;51.186;6.926;2023-02-10T03:26:46;18.15;42.74
65239;SHT30;51827;51.186;6.926;2023-02-10T03:27:47;18.15;42.72
65239;SHT30;51827;51.186;6.926;2023-02-10T03:28:47;18.15;42.71
65239;SHT30;51827;51.186;6.926;2023-02-10T03:29:47;18.11;42.72
65239;SHT30;51827;51.186;6.926;2023-02-10T03:30:47;18.14;42.71
65239;SHT30;51827;51.186;6.926;2023-02-10T03:31:48;18.11;42.72
65239;SHT30;51827;51.186;6.926;2023-02-10T03:32:48;18.14;42.75
65239;SHT30;51827;51.186;6.926;2023-02-10T03:33:49;18.11;42.73
65239;SHT30;51827;51.186;6.926;2023-02-10T03:34:49;18.14;42.77
65239;SHT30;51827;51.186;6.926;2023-02-10T03:35:50;18.14;42.74
65239;SHT30;51827;51.186;6.926;2023-02-10T03:36:50;18.15;42.70
65239;SHT30;51827;51.186;6.926;2023-02-10T03:37:51;18.14;42.73
65239;SHT30;51827;51.186;6.926;2023-02-10T03:38:51;18.12;42.76
65239;SHT30;51827;51.186;6.926;2023-02-10T03:39:51;18.11;42.76
65239;SHT30;51827;51.186;6.926;2023-02-10T03:40:52;18.15;42.68
65239;SHT30;51827;51.186;6.926;2023-02-10T03:41:52;18.14;42.70
65239;SHT30;51827;51.186;6.926;2023-02-10T03:42:53;18.15;42.75
65239;SHT30;51827;51.186;6.926;2023-02-10T03:43:53;18.15;42.70
65239;SHT30;51827;51.186;6.926;2023-02-10T03:44:53;18.14;42.71
65239;SHT30;51827;51.186;6.926;2023-02-10T03:45:53;18.12;42.74
65239;SHT30;51827;51.186;6.926;2023-02-10T03:46:53;18.14;42.75
65239;SHT30;51827;51.186;6.926;2023-02-10T03:47:54;18.14;42.78
65239;SHT30;51827;51.186;6.926;2023-02-10T03:48:54;18.12;42.72
65239;SHT30;51827;51.186;6.926;2023-02-10T03:49:54;18.12;42.79
65239;SHT30;51827;51.186;6.926;2023-02-10T03:50:54;18.15;42.76
65239;SHT30;51827;51.186;6.926;2023-02-10T03:51:55;18.14;42.76
65239;SHT30;51827;51.186;6.926;2023-02-10T03:52:55;18.12;42.76
65239;SHT30;51827;51.186;6.926;2023-02-10T03:53:55;18.15;42.77
65239;SHT30;51827;51.186;6.926;2023-02-10T03:54:56;18.12;42.72
65239;SHT30;51827;51.186;6.926;2023-02-10T03:55:56;18.12;42.78
65239;SHT30;51827;51.186;6.926;2023-02-10T03:56:57;18.14;42.72
65239;SHT30;51827;51.186;6.926;2023-02-10T03:57:57;18.15;42.77
65239;SHT30;51827;51.186;6.926;2023-02-10T03:59:03;18.14;42.77
65239;SHT30;51827;51.186;6.926;2023-02-10T04:00:03;18.12;42.74
65239;SHT30;51827;51.186;6.926;2023-02-10T04:01:09;18.15;42.72
65239;SHT30;51827;51.186;6.926;2023-02-10T04:02:10;18.12;42.75
65239;SHT30;51827;51.186;6.926;2023-02-10T04:03:10;18.12;42.73
65239;SHT30;51827;51.186;6.926;2023-02-10T04:04:10;18.15;42.74
65239;SHT30;51827;51.186;6.926;2023-02-10T04:05:10;18.14;42.78
65239;SHT30;51827;51.186;6.926;2023-02-10T04:06:11;18.15;42.72
65239;SHT30;51827;51.186;6.926;2023-02-10T04:07:12;18.15;42.80
65239;SHT30;51827;51.186;6.926;2023-02-10T04:08:12;18.14;42.74
65239;SHT30;51827;51.186;6.926;2023-02-10T04:09:12;18.17;42.71
65239;SHT30;51827;51.186;6.926;2023-02-10T04:10:13;18.15;42.76
65239;SHT30;51827;51.186;6.926;2023-02-10T04:11:13;18.15;42.80
65239;SHT30;51827;51.186;6.926;2023-02-10T04:12:13;18.14;42.79
65239;SHT30;51827;51.186;6.926;2023-02-10T04:13:13;18.14;42.86
65239;SHT30;51827;51.186;6.926;2023-02-10T04:14:14;18.12;42.83
65239;SHT30;51827;51.186;6.926;2023-02-10T04:15:14;18.15;42.77
65239;SHT30;51827;51.186;6.926;2023-02-10T04:16:16;18.15;42.73
65239;SHT30;51827;51.186;6.926;2023-02-10T04:17:16;18.15;42.79
65239;SHT30;51827;51.186;6.926;2023-02-10T04:18:17;18.15;42.80
65239;SHT30;51827;51.186;6.926;2023-02-10T04:19:17;18.15;42.77
65239;SHT30;51827;51.186;6.926;2023-02-10T04:20:17;18.17;42.76
65239;SHT30;51827;51.186;6.926;2023-02-10T04:21:18;18.15;42.78
65239;SHT30;51827;51.186;6.926;2023-02-10T04:22:18;18.15;42.79
65239;SHT30;51827;51.186;6.926;2023-02-10T04:23:18;18.15;42.81
65239;SHT30;51827;51.186;6.926;2023-02-10T04:24:18;18.14;42.81
65239;SHT30;51827;51.186;6.926;2023-02-10T04:25:19;18.12;42.80
65239;SHT30;51827;51.186;6.926;2023-02-10T04:26:19;18.15;42.81
65239;SHT30;51827;51.186;6.926;2023-02-10T04:27:19;18.14;42.79
65239;SHT30;51827;51.186;6.926;2023-02-10T04:28:20;18.12;42.80
65239;SHT30;51827;51.186;6.926;2023-02-10T04:29:21;18.14;42.81
65239;SHT30;51827;51.186;6.926;2023-02-10T04:30:21;18.15;42.80
65239;SHT30;51827;51.186;6.926;2023-02-10T04:31:21;18.15;42.80
65239;SHT30;51827;51.186;6.926;2023-02-10T04:32:22;18.15;42.81
65239;SHT30;51827;51.186;6.926;2023-02-10T04:33:23;18.14;42.85
65239;SHT30;51827;51.186;6.926;2023-02-10T04:34:23;18.11;42.86
65239;SHT30;51827;51.186;6.926;2023-02-10T04:35:23;18.12;42.80
65239;SHT30;51827;51.186;6.926;2023-02-10T04:36:23;18.17;42.78
65239;SHT30;51827;51.186;6.926;2023-02-10T04:37:24;18.14;42.82
65239;SHT30;51827;51.186;6.926;2023-02-10T04:38:24;18.15;42.84
65239;SHT30;51827;51.186;6.926;2023-02-10T04:39:24;18.17;42.83
65239;SHT30;51827;51.186;6.926;2023-02-10T04:40:25;18.17;42.81
65239;SHT30;51827;51.186;6.926;2023-02-10T04:41:25;18.15;42.83
65239;SHT30;51827;51.186;6.926;2023-02-10T04:42:26;18.15;42.82
65239;SHT30;51827;51.186;6.926;2023-02-10T04:43:26;18.15;42.80
65239;SHT30;51827;51.186;6.926;2023-02-10T04:44:26;18.15;42.81
65239;SHT30;51827;51.186;6.926;2023-02-10T04:45:26;18.14;42.83
65239;SHT30;51827;51.186;6.926;2023-02-10T04:46:27;18.14;42.84
65239;SHT30;51827;51.186;6.926;2023-02-10T04:47:27;18.11;42.86
65239;SHT30;51827;51.186;6.926;2023-02-10T04:48:28;18.12;42.88
65239;SHT30;51827;51.186;6.926;2023-02-10T04:49:28;18.14;42.84
65239;SHT30;51827;51.186;6.926;2023-02-10T04:50:28;18.17;42.88
65239;SHT30;51827;51.186;6.926;2023-02-10T04:51:29;18.12;42.85
65239;SHT30;51827;51.186;6.926;2023-02-10T04:52:29;18.17;42.88
65239;SHT30;51827;51.186;6.926;2023-02-10T04:53:29;18.17;42.85
65239;SHT30;51827;51.186;6.926;2023-02-10T04:54:29;18.14;42.89
65239;SHT30;51827;51.186;6.926;2023-02-10T04:55:30;18.15;42.91
65239;SHT30;51827;51.186;6.926;2023-02-10T04:56:30;18.15;42.88
65239;SHT30;51827;51.186;6.926;2023-02-10T04:57:30;18.18;42.89
65239;SHT30;51827;51.186;6.926;2023-02-10T04:58:31;18.17;42.89
65239;SHT30;51827;51.186;6.926;2023-02-10T04:59:31;18.15;42.94
65239;SHT30;51827;51.186;6.926;2023-02-10T05:00:32;18.15;42.91
65239;SHT30;51827;51.186;6.926;2023-02-10T05:01:33;18.18;42.95
65239;SHT30;51827;51.186;6.926;2023-02-10T05:02:33;18.17;43.14
65239;SHT30;51827;51.186;6.926;2023-02-10T05:03:33;18.18;43.07
65239;SHT30;51827;51.186;6.926;2023-02-10T05:04:33;18.18;43.15
65239;SHT30;51827;51.186;6.926;2023-02-10T05:05:34;18.18;43.20
65239;SHT30;51827;51.186;6.926;2023-02-10T05:06:35;18.17;43.25
65239;SHT30;51827;51.186;6.926;2023-02-10T05:07:35;18.17;43.35
65239;SHT30;51827;51.186;6.926;2023-02-10T05:08:35;18.21;43.32
65239;SHT30;51827;51.186;6.926;2023-02-10T05:09:35;18.20;43.31
65239;SHT30;51827;51.186;6.926;2023-02-10T05:10:36;18.21;43.35
65239;SHT30;51827;51.186;6.926;2023-02-10T05:11:36;18.21;43.41
65239;SHT30;51827;51.186;6.926;2023-02-10T05:12:36;18.24;43.38
65239;SHT30;51827;51.186;6.926;2023-02-10T05:13:37;18.20;43.36
65239;SHT30;51827;51.186;6.926;2023-02-10T05:14:37;18.22;43.38
65239;SHT30;51827;51.186;6.926;2023-02-10T05:15:38;18.22;43.47
65239;SHT30;51827;51.186;6.926;2023-02-10T05:16:38;18.20;43.46
65239;SHT30;51827;51.186;6.926;2023-02-10T05:17:39;18.21;43.37
65239;SHT30;51827;51.186;6.926;2023-02-10T05:18:40;18.20;43.44
65239;SHT30;51827;51.186;6.926;2023-02-10T05:19:40;18.20;43.42
65239;SHT30;51827;51.186;6.926;2023-02-10T05:20:40;18.18;43.44
65239;SHT30;51827;51.186;6.926;2023-02-10T05:21:41;18.18;43.37
65239;SHT30;51827;51.186;6.926;2023-02-10T05:22:41;18.20;43.39
65239;SHT30;51827;51.186;6.926;2023-02-10T05:23:41;18.20;43.44
65239;SHT30;51827;51.186;6.926;2023-02-10T05:24:41;18.18;43.38
65239;SHT30;51827;51.186;6.926;2023-02-10T05:25:42;18.21;43.41
65239;SHT30;51827;51.186;6.926;2023-02-10T05:26:42;18.20;43.48
65239;SHT30;51827;51.186;6.926;2023-02-10T05:27:42;18.21;43.50
65239;SHT30;51827;51.186;6.926;2023-02-10T05:28:43;18.22;43.42
65239;SHT30;51827;51.186;6.926;2023-02-10T05:29:43;18.22;43.47
65239;SHT30;51827;51.186;6.926;2023-02-10T05:30:43;18.25;43.56
65239;SHT30;51827;51.186;6.926;2023-02-10T05:31:43;18.24;43.64
65239;SHT30;51827;51.186;6.926;2023-02-10T05:32:44;18.24;43.64
65239;SHT30;51827;51.186;6.926;2023-02-10T05:33:44;18.25;43.64
65239;SHT30;51827;51.186;6.926;2023-02-10T05:34:44;18.25;43.57
65239;SHT30;51827;51.186;6.926;2023-02-10T05:35:44;18.25;43.63
65239;SHT30;51827;51.186;6.926;2023-02-10T05:36:45;18.25;43.64
65239;SHT30;51827;51.186;6.926;2023-02-10T05:37:45;18.24;43.63
65239;SHT30;51827;51.186;6.926;2023-02-10T05:38:45;18.28;43.66
65239;SHT30;51827;51.186;6.926;2023-02-10T05:39:45;18.28;43.66
65239;SHT30;51827;51.186;6.926;2023-02-10T05:40:46;18.27;43.68
65239;SHT30;51827;51.186;6.926;2023-02-10T05:41:46;18.27;43.63
65239;SHT30;51827;51.186;6.926;2023-02-10T05:42:46;18.22;43.64
65239;SHT30;51827;51.186;6.926;2023-02-10T05:43:47;18.27;43.59
65239;SHT30;51827;51.186;6.926;2023-02-10T05:44:47;18.25;43.57
65239;SHT30;51827;51.186;6.926;2023-02-10T05:45:47;18.22;43.64
65239;SHT30;51827;51.186;6.926;2023-02-10T05:46:48;18.22;43.61
65239;SHT30;51827;51.186;6.926;2023-02-10T05:47:49;18.21;43.56
65239;SHT30;51827;51.186;6.926;2023-02-10T05:48:49;18.20;43.62
65239;SHT30;51827;51.186;6.926;2023-02-10T05:49:49;18.21;43.65
65239;SHT30;51827;51.186;6.926;2023-02-10T05:50:50;18.21;43.60
65239;SHT30;51827;51.186;6.926;2023-02-10T05:51:51;18.21;43.60
65239;SHT30;51827;51.186;6.926;2023-02-10T05:52:51;18.22;43.57
65239;SHT30;51827;51.186;6.926;2023-02-10T05:53:51;18.22;43.58
65239;SHT30;51827;51.186;6.926;2023-02-10T05:54:51;18.21;43.57
65239;SHT30;51827;51.186;6.926;2023-02-10T05:55:52;18.24;43.57
65239;SHT30;51827;51.186;6.926;2023-02-10T05:56:52;18.24;43.59
65239;SHT30;51827;51.186;6.926;2023-02-10T05:57:52;18.22;43.59
65239;SHT30;51827;51.186;6.926;2023-02-10T05:58:53;18.22;43.59
65239;SHT30;51827;51.186;6.926;2023-02-10T05:59:53;18.21;43.58
65239;SHT30;51827;51.186;6.926;2023-02-10T06:00:53;18.22;43.61
65239;SHT30;51827;51.186;6.926;2023-02-10T06:01:53;18.24;43.56
65239;SHT30;51827;51.186;6.926;2023-02-10T06:02:53;18.22;43.53
65239;SHT30;51827;51.186;6.926;2023-02-10T06:03:54;18.22;43.48
65239;SHT30;51827;51.186;6.926;2023-02-10T06:04:54;18.21;43.56
65239;SHT30;51827;51.186;6.926;2023-02-10T06:05:55;18.22;43.51
65239;SHT30;51827;51.186;6.926;2023-02-10T06:06:55;18.22;43.55
65239;SHT30;51827;51.186;6.926;2023-02-10T06:07:55;18.21;43.53
65239;SHT30;51827;51.186;6.926;2023-02-10T06:08:55;18.21;43.51
65239;SHT30;51827;51.186;6.926;2023-02-10T06:09:55;18.20;43.55
65239;SHT30;51827;51.186;6.926;2023-02-10T06:10:56;18.21;43.47
65239;SHT30;51827;51.186;6.926;2023-02-10T06:11:56;18.21;43.47
65239;SHT30;51827;51.186;6.926;2023-02-10T06:12:56;18.20;43.50
65239;SHT30;51827;51.186;6.926;2023-02-10T06:13:57;18.20;43.54
65239;SHT30;51827;51.186;6.926;2023-02-10T06:14:57;18.20;43.54
65239;SHT30;51827;51.186;6.926;2023-02-10T06:15:57;18.21;43.55
65239;SHT30;51827;51.186;6.926;2023-02-10T06:16:57;18.20;43.54
65239;SHT30;51827;51.186;6.926;2023-02-10T06:17:58;18.18;43.51
65239;SHT30;51827;51.186;6.926;2023-02-10T06:18:58;18.18;43.53
65239;SHT30;51827;51.186;6.926;2023-02-10T06:19:58;18.20;43.44
65239;SHT30;51827;51.186;6.926;2023-02-10T06:20:59;18.20;43.45
65239;SHT30;51827;51.186;6.926;2023-02-10T06:21:59;18.18;43.44
65239;SHT30;51827;51.186;6.926;2023-02-10T06:23:00;18.21;43.44
65239;SHT30;51827;51.186;6.926;2023-02-10T06:24:00;18.21;43.43
65239;SHT30;51827;51.186;6.926;2023-02-10T06:25:00;18.17;43.41
65239;SHT30;51827;51.186;6.926;2023-02-10T06:26:00;18.21;43.40
65239;SHT30;51827;51.186;6.926;2023-02-10T06:27:01;18.20;43.41
65239;SHT30;51827;51.186;6.926;2023-02-10T06:28:01;18.20;43.42
65239;SHT30;51827;51.186;6.926;2023-02-10T06:29:01;18.21;43.40
65239;SHT30;51827;51.186;6.926;2023-02-10T06:30:02;18.20;43.40
65239;SHT30;51827;51.186;6.926;2023-02-10T06:31:02;18.21;43.35
65239;SHT30;51827;51.186;6.926;2023-02-10T06:32:03;18.20;43.34
65239;SHT30;51827;51.186;6.926;2023-02-10T06:33:03;18.22;43.35
65239;SHT30;51827;51.186;6.926;2023-02-10T06:34:03;18.21;43.33
65239;SHT30;51827;51.186;6.926;2023-02-10T06:35:04;18.22;43.33
65239;SHT30;51827;51.186;6.926;2023-02-10T06:36:05;18.20;43.34
65239;SHT30;51827;51.186;6.926;2023-02-10T06:37:05;18.22;43.37
65239;SHT30;51827;51.186;6.926;2023-02-10T06:38:06;18.24;43.33
65239;SHT30;51827;51.186;6.926;2023-02-10T06:39:06;18.22;43.32
65239;SHT30;51827;51.186;6.926;2023-02-10T06:40:07;18.22;43.30
65239;SHT30;51827;51.186;6.926;2023-02-10T06:41:07;18.22;43.30
65239;SHT30;51827;51.186;6.926;2023-02-10T06:42:07;18.21;43.29
65239;SHT30;51827;51.186;6.926;2023-02-10T06:43:07;18.20;43.26
65239;SHT30;51827;51.186;6.926;2023-02-10T06:44:08;18.20;43.29
65239;SHT30;51827;51.186;6.926;2023-02-10T06:45:08;18.20;43.32
65239;SHT30;51827;51.186;6.926;2023-02-10T06:46:09;18.21;43.32
65239;SHT30;51827;51.186;6.926;2023-02-10T06:47:09;18.21;43.31
65239;SHT30;51827;51.186;6.926;2023-02-10T06:48:09;18.22;43.31
65239;SHT30;51827;51.186;6.926;2023-02-10T06:49:09;18.21;43.28